Tiempo atmosférico en la estación meteorológica de Alcoy/Alcoi, Alacant/Alicante (600 m.)



Fecha
DESCASC
Temp. máxima en grados centígrados (hora)
DESCASC
Temp. mínima en grados centígrados (hora)
DESCASC
Temp. media en grados centígrados
DESCASC
Racha de viento máxima en m/sg (hora)
DESCASC
Velocidad máxima media en intervalos de 10 minutos(hora)
DESCASC
Precipitaciones diarias en mm
DESCASC
Precipitaciones de 00:00 a 06:00 en mm
DESCASC
Precipitaciones de 06:00 a 12:00 en mm
DESCASC
Precipitaciones de 12:00 a 18:00 en mm
DESCASC
Precipitaciones de 18:00 a 24:00 en mm
DESCASC
28-02-2021 12.1 (13:20) 5.9 (01:30) 9 7.78 (14:30) 3.89 (14:30) 0 0 0 0 0
27-02-2021 15.7 (14:40) 5.8 (07:40) 10.8 6.39 (14:10) 3.33 (14:10) 0 0 0 0 0
26-02-2021 11.9 (15:30) 6.8 (23:59) 9.3 6.11 (13:10) 3.33 (13:10) 0 0 0 0 0
25-02-2021 15.4 (14:00) 4 (00:00) 9.7 6.67 (17:40) 4.44 (17:40) 0 0 0 0 0
24-02-2021 13.7 (16:20) 5.8 (00:00) 9.8 5.83 (17:30) 3.61 (16:40) 0 0 0 0 0
23-02-2021 11.3 (16:20) 6.5 (00:00) 8.9 5.83 (13:10) 2.78 (12:30) 1 0 1 0 0
22-02-2021 12.7 (15:00) 7.6 (00:00) 10.1 12.22 (05:30) 6.11 (03:30) 0 0 0 0 0
21-02-2021 11.7 (17:20) 8.6 (00:00) 10.2 7.22 (07:10) 3.61 (08:10) 3.6 0 0.4 0 3.2
20-02-2021 17.1 (14:50) 2.4 (00:00) 9.8 6.67 (17:30) 3.61 (17:30) 0 0 0 0 0
19-02-2021 20.6 (14:10) 7.2 (00:00) 13.9 8.89 (15:00) 5 (14:30) 0 0 0 0 0
18-02-2021 21.4 (16:50) 4.1 (00:00) 12.7 6.39 (23:50) 4.72 (23:50) 0 0 0 0 0
17-02-2021 22.1 (14:50) 8.7 (00:00) 15.4 6.11 (01:30) 4.72 (01:30) 0 0 0 0 0
16-02-2021 21.4 (16:40) 4.5 (00:00) 12.9 7.5 (22:20) 4.72 (22:20) 0 0 0 0 0
15-02-2021 10.7 (12:20) 5.8 (00:00) 8.3 6.67 (12:50) 2.78 (13:10) 0.4 0 0.2 0.2 0
14-02-2021 14.5 (14:30) 5 (00:00) 9.8 7.5 (13:10) 3.61 (16:00) 0 0 0 0 0
13-02-2021 19.9 (15:30) 9.5 (00:00) 14.7 8.33 (13:20) 4.72 (03:40) 0 0 0 0 0
12-02-2021 18.8 (13:00) 12.1 (00:00) 15.4 17.22 (15:20) 8.61 (15:20) 0 0 0 0 0
11-02-2021 20.4 (16:20) 10.4 (00:00) 15.4 11.94 (11:00) 5 (11:40) 0 0 0 0 0
10-02-2021 16.9 (16:10) 10.7 (00:00) 13.8 15.28 (11:40) 7.5 (11:50) 0 0 0 0 0
09-02-2021 14.2 (20:10) 8.6 (00:00) 11.4 17.78 (01:20) 9.17 (01:10) 0 0 0 0 0
08-02-2021 14.3 (15:20) 8.6 (00:00) 11.5 18.89 (19:30) 8.61 (19:10) 0.4 0 0.4 0 0
07-02-2021 15.2 (13:40) 7.8 (00:00) 11.5 17.5 (21:20) 8.06 (21:10) 0 0 0 0 0
06-02-2021 16.9 (12:30) 8.4 (00:00) 12.6 6.94 (19:40) 3.33 (15:00) 0 0 0 0 0
05-02-2021 12 (12:50) 7.6 (00:00) 9.8 5 (13:30) 3.06 (14:00) 0 0 0 0 0
04-02-2021 22.2 (14:40) 7.7 (00:00) 15 5.83 (14:30) 3.33 (07:50) 0 0 0 0 0
03-02-2021 22.7 (14:30) 7.4 (00:00) 15.1 7.5 (15:00) 4.17 (15:30) 0 0 0 0 0
02-02-2021 19.4 (16:50) 10.9 (00:00) 15.1 9.72 (06:40) 6.39 (07:40) 0 0 0 0 0
01-02-2021 20 (14:50) 12 (00:00) 16 19.72 (11:40) 9.72 (10:20) 0 0 0 0 0
31-01-2021 15.9 (14:10) 9.2 (00:00) 12.5 21.67 (18:00) 10.56 (22:50) 0 0 0 0 0

Gráficas

Temp. máximas Temp. mínimas Temp. medias Precipitaciones Rachas de viento máximas Velocidades máximas media en intervalos de 10 minutos

Datos horarios

Fecha y hora oficial Temperatura (ºC) Velocidad del viento (km/h) Dirección del viento Racha (km/h) Dirección de racha Precipitación (mm) Presión (hPa) Tendencia (hPa) Humedad (%)
2021-03-01 23:00:00 8.9 12 Nordeste 22 Nordeste 0.2 -- -- 96
2021-03-01 22:00:00 8.9 10 Nordeste 21 Nordeste 0 -- -- 94
2021-03-01 21:00:00 9.1 8 Nordeste 20 Nordeste 0 -- -- 92
2021-03-01 20:00:00 9 8 Nordeste 20 Nordeste 0 -- -- 94
2021-03-01 19:00:00 8.9 12 Nordeste 23 Nordeste 0 -- -- 94
2021-03-01 18:00:00 8.9 11 Nordeste 27 Nordeste 0 -- -- 95
2021-03-01 17:00:00 8.8 10 Nordeste 24 Nordeste 0 -- -- 95
2021-03-01 16:00:00 9.3 12 Nordeste 28 Nordeste 0 -- -- 93
2021-03-01 15:00:00 9.3 16 Nordeste 29 Nordeste 0 -- -- 92
2021-03-01 14:00:00 9.4 15 Nordeste 26 Nordeste 0 -- -- 91
2021-03-01 13:00:00 10 13 Nordeste 26 Nordeste 0 -- -- 86
2021-03-01 12:00:00 9.8 14 Nordeste 26 Nordeste 0 -- -- 87
2021-03-01 11:00:00 9.4 13 Nordeste 27 Nordeste 0 -- -- 91
2021-03-01 10:00:00 9.5 16 Nordeste 32 Nordeste 0 -- -- 89
2021-03-01 09:00:00 9.3 12 Nordeste 24 Norte 0 -- -- 90
2021-03-01 08:00:00 9 10 Nordeste 23 Nordeste 0 -- -- 91
2021-03-01 07:00:00 9 10 Nordeste 26 Norte 0 -- -- 90
2021-03-01 06:00:00 8.9 13 Nordeste 27 Nordeste 0 -- -- 93
2021-03-01 05:00:00 9.1 10 Nordeste 22 Nordeste 0 -- -- 87
2021-03-01 04:00:00 9.1 9 Nordeste 20 Norte 0 -- -- 86
2021-03-01 03:00:00 9.2 9 Nordeste 19 Nordeste 0 -- -- 86
2021-03-01 02:00:00 9.1 9 Nordeste 21 Nordeste 0 -- -- 90
2021-03-01 01:00:00 8.9 10 Nordeste 21 Nordeste 0 -- -- 93
2021-03-01 00:00:00 8.9 13 Nordeste 24 Nordeste 0 -- -- 91
2021-02-28 23:00:00 9 13 Nordeste 24 Nordeste 0 -- -- 89
2021-02-28 22:00:00 9 9 Nordeste 24 Nordeste 0 -- -- 87
2021-02-28 21:00:00 8.9 13 Nordeste 23 Nordeste 0 -- -- 89
2021-02-28 20:00:00 9.1 10 Nordeste 19 Nordeste 0 -- -- 88
2021-02-28 19:00:00 9.5 8 Nordeste 23 Nordeste 0 -- -- 84
2021-02-28 18:00:00 10.3 10 Nordeste 24 Nordeste 0 -- -- 78
2021-02-28 17:00:00 11 11 Nordeste 23 Este 0 -- -- 75
2021-02-28 16:00:00 11.6 10 Nordeste 21 Nordeste 0 -- -- 68
2021-02-28 15:00:00 11.4 12 Nordeste 28 Norte 0 -- -- 68
2021-02-28 14:00:00 11.9 10 Nordeste 20 Norte 0 -- -- 70
2021-02-28 13:00:00 11.7 8 Nordeste 23 Nordeste 0 -- -- 69
2021-02-28 12:00:00 11.4 9 Nordeste 20 Nordeste 0 -- -- 70
2021-02-28 11:00:00 10.7 5 Nordeste 12 Nordeste 0 -- -- 75
2021-02-28 10:00:00 9.3 5 Nordeste 9 Nordeste 0 -- -- 83
2021-02-28 09:00:00 8.1 0 Calma 3 Sudeste 0 -- -- 87
2021-02-28 08:00:00 6.5 0 Calma 6 Sudeste 0 -- -- 91
2021-02-28 07:00:00 6.4 2 Este 5 Noroeste 0 -- -- 90
2021-02-28 06:00:00 6.2 0 Calma 5 Sur 0 -- -- 88
2021-02-28 05:00:00 6.3 0 Calma 8 Sudoeste 0 -- -- 90
2021-02-28 04:00:00 6.9 5 Sudoeste 10 Sudoeste 0 -- -- 86
2021-02-28 03:00:00 6.8 2 Sudoeste 10 Sudoeste 0 -- -- 87
2021-02-28 02:00:00 6.2 0 Calma 5 Sur 0 -- -- 93
2021-02-28 01:00:00 6.7 2 Sudoeste 5 Sudeste 0 -- -- 93
2021-02-28 00:00:00 7.3 0 Calma 6 Sudoeste 0 -- -- 91
2021-02-27 23:00:00 6.5 0 Calma 4 Sur 0 -- -- 93
2021-02-27 22:00:00 6.5 2 Oeste 4 Sur 0 -- -- 93
2021-02-27 21:00:00 7.8 0 Calma 8 Este 0 -- -- 92
2021-02-27 20:00:00 9.1 3 Sudeste 15 Nordeste 0 -- -- 87
2021-02-27 19:00:00 11.3 8 Este 16 Este 0 -- -- 72
2021-02-27 18:00:00 13.1 8 Nordeste 20 Nordeste 0 -- -- 65
2021-02-27 17:00:00 14.7 12 Nordeste 22 Este 0 -- -- 58
2021-02-27 16:00:00 15.4 8 Nordeste 23 Este 0 -- -- 55
2021-02-27 15:00:00 15.4 12 Nordeste 23 Nordeste 0 -- -- 57
2021-02-27 14:00:00 14.7 12 Nordeste 19 Este 0 -- -- 57
2021-02-27 13:00:00 13.7 11 Este 19 Este 0 -- -- 58
2021-02-27 12:00:00 12 9 Nordeste 18 Este 0 -- -- 62
2021-02-27 11:00:00 11.3 2 Nordeste 8 Este 0 -- -- 65
2021-02-27 10:00:00 8.1 3 Este 7 Este 0 -- -- 80
2021-02-27 09:00:00 6.5 0 Calma 4 Oeste 0 -- -- 85
2021-02-27 08:00:00 5.9 0 Calma 4 Sur 0 -- -- 87
2021-02-27 07:00:00 6 2 Sur 5 Sudeste 0 -- -- 87
2021-02-27 06:00:00 6.4 3 Este 8 Este 0 -- -- 86
2021-02-27 05:00:00 6.8 3 Nordeste 4 Nordeste 0 -- -- 89
2021-02-27 04:00:00 6.8 0 Calma 5 Este 0 -- -- 91
2021-02-27 03:00:00 6.9 0 Calma 6 Nordeste 0 -- -- 90
2021-02-27 02:00:00 6.9 0 Calma 2 Norte 0 -- -- 92
2021-02-27 01:00:00 6.6 0 Calma 3 Noroeste 0 -- -- 93
2021-02-27 00:00:00 6.8 0 Calma 2 Nordeste 0 -- -- 92
2021-02-26 23:00:00 8 0 Calma 5 Nordeste 0 -- -- 91
2021-02-26 22:00:00 8 2 Este 6 Nordeste 0 -- -- 90
2021-02-26 21:00:00 8.9 3 Nordeste 9 Nordeste 0 -- -- 86
2021-02-26 20:00:00 9.3 5 Nordeste 10 Nordeste 0 -- -- 83
2021-02-26 19:00:00 9.8 4 Este 16 Este 0 -- -- 77
2021-02-26 18:00:00 10.4 7 Nordeste 17 Nordeste 0 -- -- 77
2021-02-26 17:00:00 10.9 10 Nordeste 18 Nordeste 0 -- -- 73
2021-02-26 16:00:00 11.7 8 Nordeste 20 Nordeste 0 -- -- 68
2021-02-26 15:00:00 11.7 10 Nordeste 21 Nordeste 0 -- -- 70
2021-02-26 14:00:00 11.1 10 Nordeste 22 Nordeste 0 -- -- 75
2021-02-26 13:00:00 10.9 10 Nordeste 19 Nordeste 0 -- -- 82
2021-02-26 12:00:00 10.3 9 Nordeste 18 Este 0 -- -- 87
2021-02-26 11:00:00 10.4 8 Nordeste 17 Este 0 -- -- 82
2021-02-26 10:00:00 9.7 7 Nordeste 14 Este 0 -- -- 83
2021-02-26 09:00:00 9.3 6 Nordeste 12 Este 0 -- -- 88
2021-02-26 08:00:00 8.9 5 Nordeste 17 Norte 0 -- -- 93
2021-02-26 07:00:00 8.5 4 Este 8 Este 0 -- -- 94
2021-02-26 06:00:00 8.3 0 Calma 9 Este 0 -- -- 92
2021-02-26 05:00:00 8.9 0 Calma 3 Nordeste 0 -- -- 87
2021-02-26 04:00:00 8.8 0 Calma 2 Sudeste 0 -- -- 88
2021-02-26 03:00:00 8.3 0 Calma 5 Este 0 -- -- 92
2021-02-26 02:00:00 8.5 3 Este 6 Este 0 -- -- 95
2021-02-26 01:00:00 8.8 2 Este 5 Este 0 -- -- 95
2021-02-26 00:00:00 9.3 3 Este 12 Nordeste 0 -- -- 93
2021-02-25 23:00:00 10 6 Este 13 Nordeste 0 -- -- 93
2021-02-25 22:00:00 10.1 7 Nordeste 14 Nordeste 0 -- -- 92
2021-02-25 21:00:00 10.4 5 Nordeste 13 Nordeste 0 -- -- 93
2021-02-25 20:00:00 10.5 5 Nordeste 13 Nordeste 0 -- -- 93
2021-02-25 19:00:00 11 6 Nordeste 19 Este 0 -- -- 91
2021-02-25 18:00:00 11.5 14 Este 24 Este 0 -- -- 88
2021-02-25 17:00:00 13.1 14 Nordeste 21 Este 0 -- -- 81
2021-02-25 16:00:00 14.7 12 Nordeste 21 Nordeste 0 -- -- 73
2021-02-25 15:00:00 14.9 10 Nordeste 20 Nordeste 0 -- -- 70
2021-02-25 14:00:00 15.4 9 Nordeste 19 Este 0 -- -- 64
2021-02-25 13:00:00 13.6 9 Este 17 Este 0 -- -- 68
2021-02-25 12:00:00 12.3 8 Este 14 Este 0 -- -- 73
2021-02-25 11:00:00 11 6 Este 9 Nordeste 0 -- -- 76
2021-02-25 10:00:00 8.5 4 Este 6 Sudoeste 0 -- -- 81
2021-02-25 09:00:00 6.6 4 Sudoeste 10 Sudoeste 0 -- -- 83
2021-02-25 08:00:00 4.2 6 Sudoeste 13 Sudoeste 0 -- -- 90
2021-02-25 07:00:00 4.3 6 Sudoeste 12 Oeste 0 -- -- 88
2021-02-25 06:00:00 4.5 5 Sudoeste 9 Sudoeste 0 -- -- 88
2021-02-25 05:00:00 4.7 5 Oeste 11 Sudoeste 0 -- -- 88
2021-02-25 04:00:00 4.8 6 Oeste 12 Sudoeste 0 -- -- 89
2021-02-25 03:00:00 4.8 8 Sudoeste 15 Sudoeste 0 -- -- 89
2021-02-25 02:00:00 5 9 Sudoeste 15 Sudoeste 0 -- -- 89
2021-02-25 01:00:00 5.7 8 Sudoeste 14 Oeste 0 -- -- 88
2021-02-25 00:00:00 6.3 6 Sudoeste 10 Sudoeste 0 -- -- 87
2021-02-24 23:00:00 7.7 4 Oeste 9 Sudoeste 0 -- -- 85
2021-02-24 22:00:00 7.5 3 Sudoeste 4 Oeste 0 -- -- 91
2021-02-24 21:00:00 8.5 0 Calma 10 Nordeste 0 -- -- 89
2021-02-24 20:00:00 10.2 3 Nordeste 12 Nordeste 0 -- -- 81
2021-02-24 19:00:00 10.7 6 Norte 17 Norte 0 -- -- 83
2021-02-24 18:00:00 11.9 9 Nordeste 21 Norte 0 -- -- 78
2021-02-24 17:00:00 13.2 10 Nordeste 21 Nordeste 0 -- -- 71
2021-02-24 16:00:00 13.3 10 Nordeste 20 Nordeste 0 -- -- 70
2021-02-24 15:00:00 13.2 10 Nordeste 20 Nordeste 0 -- -- 73
2021-02-24 14:00:00 13.1 10 Nordeste 21 Nordeste 0 -- -- 80
2021-02-24 13:00:00 12 9 Este 17 Nordeste 0 -- -- 83
2021-02-24 12:00:00 11.1 5 Este 10 Este 0 -- -- 93
2021-02-24 11:00:00 8.6 4 Este 6 Este 0 -- -- 95
2021-02-24 10:00:00 8.3 2 Nordeste 5 Oeste 0 -- -- 94
2021-02-24 09:00:00 7.3 0 Calma 3 Este 0 -- -- 94
2021-02-24 08:00:00 7.2 0 Calma 4 Nordeste 0 -- -- 91
2021-02-24 07:00:00 7.5 0 Calma 5 Oeste 0 -- -- 87
2021-02-24 06:00:00 7.4 3 Sudoeste 5 Sur 0 -- -- 87
2021-02-24 05:00:00 7.3 0 Calma 6 Oeste 0 -- -- 86
2021-02-24 04:00:00 7.2 4 Sudoeste 10 Sudoeste 0 -- -- 83
2021-02-24 03:00:00 6.6 0 Calma 8 Oeste 0 -- -- 86
2021-02-24 02:00:00 6.1 4 Sudoeste 11 Sudoeste 0 -- -- 82
2021-02-24 01:00:00 6 2 Oeste 12 Sudoeste 0 -- -- 86
2021-02-24 00:00:00 6.5 6 Sudoeste 12 Oeste 0 -- -- 87
2021-02-23 23:00:00 7.2 3 Oeste 8 Oeste 0 -- -- 90
2021-02-23 22:00:00 7 0 Calma 4 Oeste 0 -- -- 92
2021-02-23 21:00:00 7.7 0 Calma 4 Noroeste 0 -- -- 90
2021-02-23 20:00:00 9 0 Calma 5 Este 0 -- -- 87
2021-02-23 19:00:00 9.9 2 Este 9 Este 0 -- -- 84
2021-02-23 18:00:00 10.6 4 Este 13 Nordeste 0 -- -- 82
2021-02-23 17:00:00 10.7 9 Nordeste 16 Nordeste 0 -- -- 79
2021-02-23 16:00:00 11 7 Este 16 Nordeste 0 -- -- 81
2021-02-23 15:00:00 10.4 8 Este 16 Este 0 -- -- 84
2021-02-23 14:00:00 10.4 10 Este 21 Nordeste 0 -- -- 84
2021-02-23 13:00:00 10.8 10 Nordeste 18 Nordeste 0 -- -- 82
2021-02-23 12:00:00 10 9 Nordeste 17 Norte 0 -- -- 87
2021-02-23 11:00:00 9.1 9 Nordeste 17 Nordeste 0 -- -- 94
2021-02-23 10:00:00 7.8 4 Este 10 Nordeste 0.6 -- -- 96
2021-02-23 09:00:00 7.5 4 Este 7 Este 0.4 -- -- 95
2021-02-23 08:00:00 7.5 2 Este 4 Este 0 -- -- 93
2021-02-23 07:00:00 7.8 0 Calma 6 Este 0 -- -- 90
2021-02-23 06:00:00 8.1 0 Calma 3 Noroeste 0 -- -- 87
2021-02-23 05:00:00 8.1 0 Calma 2 Oeste 0 -- -- 88
2021-02-23 04:00:00 8 0 Calma 5 Oeste 0 -- -- 85
2021-02-23 03:00:00 8.1 0 Calma 4 Noroeste 0 -- -- 86
2021-02-23 02:00:00 7.4 2 Noroeste 7 Oeste 0 -- -- 88
2021-02-23 01:00:00 7.9 0 Calma 3 Norte 0 -- -- 86
2021-02-23 00:00:00 7.6 0 Calma 10 Este 0 -- -- 81
2021-02-22 23:00:00 7.6 0 Calma 4 Sur 0 -- -- 76
2021-02-22 22:00:00 8.5 0 Calma 11 Sudoeste 0 -- -- 70
2021-02-22 21:00:00 8.7 2 Oeste 17 Oeste 0 -- -- 68
2021-02-22 20:00:00 9.1 5 Noroeste 24 Oeste 0 -- -- 66
2021-02-22 19:00:00 9.9 9 Oeste 28 Sudoeste 0 -- -- 61
2021-02-22 18:00:00 10.7 10 Oeste 21 Sudoeste 0 -- -- 57
2021-02-22 17:00:00 10.8 12 Oeste 27 Oeste 0 -- -- 58
2021-02-22 16:00:00 10.7 14 Oeste 32 Oeste 0 -- -- 56
2021-02-22 15:00:00 12.7 17 Oeste 34 Oeste 0 -- -- 50
2021-02-22 14:00:00 11.5 20 Oeste 37 Oeste 0 -- -- 54
2021-02-22 13:00:00 10.9 15 Oeste 43 Oeste 0 -- -- 56
2021-02-22 12:00:00 11.2 21 Oeste 41 Oeste 0 -- -- 56
2021-02-22 11:00:00 9.3 16 Oeste 39 Oeste 0 -- -- 63
2021-02-22 10:00:00 9.1 6 Sudoeste 42 Oeste 0 -- -- 67
2021-02-22 09:00:00 8.7 5 Oeste 28 Sudoeste 0 -- -- 69
2021-02-22 08:00:00 8.5 15 Sudoeste 35 Oeste 0 -- -- 68
2021-02-22 07:00:00 8.7 14 Oeste 31 Oeste 0 -- -- 67
2021-02-22 06:00:00 8.6 6 Sur 44 Sudoeste 0 -- -- 68
2021-02-22 05:00:00 8.8 14 Sudoeste 31 Oeste 0 -- -- 67
2021-02-22 04:00:00 8.8 20 Sudoeste 41 Sudoeste 0 -- -- 67
2021-02-22 03:00:00 9.1 15 Oeste 39 Sudoeste 0 -- -- 70
2021-02-22 02:00:00 9.1 2 Sudeste 20 Oeste 0 -- -- 78
2021-02-22 01:00:00 10.6 13 Sudoeste 30 Sudoeste 0 -- -- 75
2021-02-22 00:00:00 10.8 9 Sudoeste 17 Oeste 2.2 -- -- 82
2021-02-21 23:00:00 10.4 3 Sudeste 7 Sudoeste 1 -- -- 95
2021-02-21 22:00:00 10 0 Calma 4 Sudeste 0 -- -- 96
2021-02-21 21:00:00 10.4 2 Este 7 Este 0 -- -- 94
2021-02-21 20:00:00 10.8 2 Sur 8 Sudoeste 0 -- -- 94
2021-02-21 19:00:00 10.8 2 Este 8 Este 0 -- -- 91
2021-02-21 18:00:00 11.5 3 Este 13 Este 0 -- -- 89
2021-02-21 17:00:00 11.6 8 Este 14 Este 0 -- -- 88
2021-02-21 16:00:00 11.4 6 Este 14 Este 0 -- -- 91
2021-02-21 15:00:00 11.3 5 Nordeste 14 Nordeste 0 -- -- 93
2021-02-21 14:00:00 10.8 7 Este 13 Nordeste 0 -- -- 96
2021-02-21 13:00:00 10.3 8 Este 16 Nordeste 0 -- -- 98
2021-02-21 12:00:00 9.8 8 Nordeste 17 Nordeste 0 -- -- 98
2021-02-21 11:00:00 9.5 6 Nordeste 24 Nordeste 0 -- -- 98
2021-02-21 10:00:00 9.3 8 Nordeste 13 Nordeste 0.2 -- -- 98
2021-02-21 09:00:00 8.9 7 Nordeste 23 Norte 0 -- -- 98
2021-02-21 08:00:00 8.6 12 Nordeste 26 Nordeste 0 -- -- 98
2021-02-21 07:00:00 8.8 10 Nordeste 22 Nordeste 0.2 -- -- 98
2021-02-21 06:00:00 8.8 11 Nordeste 22 Nordeste 0 -- -- 97
2021-02-21 05:00:00 9 10 Nordeste 20 Nordeste 0 -- -- 95
2021-02-21 04:00:00 9.3 9 Nordeste 17 Nordeste 0 -- -- 93
2021-02-21 03:00:00 8.9 2 Nordeste 5 Nordeste 0 -- -- 85
2021-02-21 02:00:00 8.9 0 Calma 3 Oeste 0 -- -- 85
2021-02-21 01:00:00 8.6 2 Sudeste 10 Nordeste 0 -- -- 86
2021-02-21 00:00:00 8.9 5 Nordeste 9 Nordeste 0 -- -- 86
2021-02-20 23:00:00 9.1 5 Nordeste 14 Nordeste 0 -- -- 89
2021-02-20 22:00:00 9.5 3 Nordeste 9 Nordeste 0 -- -- 89
2021-02-20 21:00:00 9.5 5 Nordeste 11 Este 0 -- -- 92
2021-02-20 20:00:00 9.6 6 Este 10 Este 0 -- -- 91
2021-02-20 19:00:00 9.6 6 Este 18 Este 0 -- -- 90
2021-02-20 18:00:00 11.1 11 Este 24 Nordeste 0 -- -- 83
2021-02-20 17:00:00 13.6 13 Este 20 Nordeste 0 -- -- 72
2021-02-20 16:00:00 15.7 9 Nordeste 18 Nordeste 0 -- -- 63
2021-02-20 15:00:00 16.9 10 Nordeste 17 Nordeste 0 -- -- 54
2021-02-20 14:00:00 16.2 9 Este 19 Este 0 -- -- 54
2021-02-20 13:00:00 14.1 9 Este 15 Este 0 -- -- 61
2021-02-20 12:00:00 11.1 5 Este 13 Nordeste 0 -- -- 78
2021-02-20 11:00:00 7.5 6 Nordeste 13 Nordeste 0 -- -- 93
2021-02-20 10:00:00 4.8 2 Sudeste 6 Este 0 -- -- 96
2021-02-20 09:00:00 3.7 0 Calma 4 Nordeste 0 -- -- 95
2021-02-20 08:00:00 3 0 Calma 4 Este 0 -- -- 93
2021-02-20 07:00:00 2.8 0 Calma 5 Este 0 -- -- 82
2021-02-20 06:00:00 4.7 0 Calma 4 Nordeste 0 -- -- 69
2021-02-20 05:00:00 5.5 0 Calma 4 Este 0 -- -- 76
2021-02-20 04:00:00 8.3 4 Este 19 Sudoeste 0 -- -- 47
2021-02-20 03:00:00 9.8 8 Oeste 12 Oeste 0 -- -- 41
2021-02-20 02:00:00 7.9 0 Calma 7 Oeste 0 -- -- 47
2021-02-20 01:00:00 8.8 2 Norte 12 Sudoeste 0 -- -- 45
2021-02-20 00:00:00 11.5 9 Oeste 16 Oeste 0 -- -- 38
2021-02-19 23:00:00 12 10 Sudoeste 16 Sudoeste 0 -- -- 38
2021-02-19 22:00:00 12.7 10 Sudoeste 15 Sudoeste 0 -- -- 37
2021-02-19 21:00:00 13.7 9 Sudoeste 13 Sudoeste 0 -- -- 36
2021-02-19 20:00:00 14 5 Sudoeste 17 Oeste 0 -- -- 35
2021-02-19 19:00:00 16.6 6 Sudoeste 22 Sudoeste 0 -- -- 28
2021-02-19 18:00:00 17.8 12 Sudoeste 27 Sudoeste 0 -- -- 29
2021-02-19 17:00:00 19 12 Sudoeste 26 Sur 0 -- -- 27
2021-02-19 16:00:00 19.6 12 Sur 31 Sur 0 -- -- 28
2021-02-19 15:00:00 20 15 Sur 32 Sur 0 -- -- 28
2021-02-19 14:00:00 20.4 16 Sur 31 Sur 0 -- -- 27
2021-02-19 13:00:00 20.5 11 Sur 26 Sur 0 -- -- 26
2021-02-19 12:00:00 18.3 7 Este 11 Este 0 -- -- 35
2021-02-19 11:00:00 16.8 5 Este 8 Nordeste 0 -- -- 39
2021-02-19 10:00:00 14.1 4 Sudoeste 15 Sudoeste 0 -- -- 42
2021-02-19 09:00:00 9.2 10 Sudoeste 19 Sudoeste 0 -- -- 52
2021-02-19 08:00:00 7.6 12 Sudoeste 18 Sudoeste 0 -- -- 56
2021-02-19 07:00:00 7.2 9 Sudoeste 19 Sudoeste 0 -- -- 56
2021-02-19 06:00:00 8 11 Sudoeste 18 Sudoeste 0 -- -- 52
2021-02-19 05:00:00 8.2 9 Sudoeste 22 Sudoeste 0 -- -- 50
2021-02-19 04:00:00 8.3 10 Sudoeste 19 Sudoeste 0 -- -- 49
2021-02-19 03:00:00 8.2 6 Oeste 17 Sudoeste 0 -- -- 49
2021-02-19 02:00:00 9 8 Sudoeste 20 Sudoeste 0 -- -- 46
2021-02-19 01:00:00 9.7 14 Sudoeste 22 Sudoeste 0 -- -- 44
2021-02-19 00:00:00 10.6 17 Sudoeste 23 Sudoeste 0 -- -- 43
2021-02-18 23:00:00 11.5 11 Sudoeste 14 Sudoeste 0 -- -- 42
2021-02-18 22:00:00 12.3 10 Sudoeste 17 Sudoeste 0 -- -- 42
2021-02-18 21:00:00 13.2 12 Sudoeste 17 Sudoeste 0 -- -- 44
2021-02-18 20:00:00 13.9 9 Sudoeste 15 Sudoeste 0 -- -- 46
2021-02-18 19:00:00 15.4 3 Oeste 7 Oeste 0 -- -- 40
2021-02-18 18:00:00 18.8 3 Nordeste 11 Norte 0 -- -- 33
2021-02-18 17:00:00 20.8 6 Norte 20 Este 0 -- -- 30
2021-02-18 16:00:00 20.7 7 Este 17 Este 0 -- -- 28
2021-02-18 15:00:00 20.1 9 Este 16 Este 0 -- -- 34
2021-02-18 14:00:00 18.8 9 Este 17 Este 0 -- -- 33
2021-02-18 13:00:00 17.9 9 Este 15 Este 0 -- -- 30
2021-02-18 12:00:00 15.8 5 Este 12 Este 0 -- -- 37
2021-02-18 11:00:00 13.4 4 Nordeste 7 Este 0 -- -- 37
2021-02-18 10:00:00 10.7 4 Este 5 Este 0 -- -- 47
2021-02-18 09:00:00 8.2 0 Calma 4 Sudoeste 0 -- -- 50
2021-02-18 08:00:00 5.4 0 Calma 13 Sudoeste 0 -- -- 53
2021-02-18 07:00:00 4.3 0 Calma 13 Oeste 0 -- -- 57
2021-02-18 06:00:00 7 5 Oeste 17 Oeste 0 -- -- 45
2021-02-18 05:00:00 7.7 7 Sudoeste 14 Oeste 0 -- -- 43
2021-02-18 04:00:00 6.1 2 Sudeste 11 Sudoeste 0 -- -- 47
2021-02-18 03:00:00 7.9 8 Sudoeste 21 Sudoeste 0 -- -- 39
2021-02-18 02:00:00 7.6 12 Sudoeste 18 Sudoeste 0 -- -- 38
2021-02-18 01:00:00 7.9 8 Sudoeste 14 Oeste 0 -- -- 39
2021-02-18 00:00:00 8.7 6 Oeste 14 Sudoeste 0 -- -- 41
2021-02-17 23:00:00 9.5 7 Oeste 14 Oeste 0 -- -- 42
2021-02-17 22:00:00 10.6 6 Sudoeste 13 Sudoeste 0 -- -- 45
2021-02-17 21:00:00 12.1 9 Sudoeste 17 Sudoeste 0 -- -- 44
2021-02-17 20:00:00 14.3 9 Sudoeste 13 Sudoeste 0 -- -- 44
2021-02-17 19:00:00 14.7 0 Calma 7 Nordeste 0 -- -- 64
2021-02-17 18:00:00 17.6 5 Este 14 Nordeste 0 -- -- 59
2021-02-17 17:00:00 20.1 7 Nordeste 15 Nordeste 0 -- -- 48
2021-02-17 16:00:00 21.1 8 Este 15 Este 0 -- -- 37
2021-02-17 15:00:00 21.4 9 Este 17 Sudeste 0 -- -- 34
2021-02-17 14:00:00 20.6 9 Nordeste 14 Nordeste 0 -- -- 30
2021-02-17 13:00:00 18.9 7 Este 15 Nordeste 0 -- -- 31
2021-02-17 12:00:00 17.3 8 Este 14 Este 0 -- -- 37
2021-02-17 11:00:00 15.3 7 Este 10 Este 0 -- -- 42
2021-02-17 10:00:00 12.7 2 Este 18 Sudoeste 0 -- -- 47
2021-02-17 09:00:00 10.8 12 Sudoeste 19 Sudoeste 0 -- -- 45
2021-02-17 08:00:00 9 10 Oeste 15 Sudoeste 0 -- -- 50
2021-02-17 07:00:00 10 10 Oeste 20 Oeste 0 -- -- 45
2021-02-17 06:00:00 10.2 13 Sudoeste 20 Sudoeste 0 -- -- 45
2021-02-17 05:00:00 10.3 10 Oeste 19 Sudoeste 0 -- -- 45
2021-02-17 04:00:00 10.1 10 Oeste 22 Oeste 0 -- -- 48
2021-02-17 03:00:00 10.2 15 Sudoeste 22 Sudoeste 0 -- -- 51
2021-02-17 02:00:00 10.2 13 Sudoeste 22 Sudoeste 0 -- -- 53
2021-02-17 01:00:00 10 11 Oeste 21 Sudoeste 0 -- -- 55
2021-02-17 00:00:00 9.8 5 Sudoeste 19 Sudoeste 0 -- -- 55
2021-02-16 23:00:00 10.4 4 Sudoeste 27 Sudoeste 0 -- -- 52
2021-02-16 22:00:00 11 12 Sudoeste 21 Sudoeste 0 -- -- 52
2021-02-16 21:00:00 11.8 8 Sudoeste 21 Sudoeste 0 -- -- 53
2021-02-16 20:00:00 14.2 13 Sudoeste 18 Sudoeste 0 -- -- 45
2021-02-16 19:00:00 15.5 5 Oeste 12 Sudoeste 0 -- -- 44
2021-02-16 18:00:00 19.7 4 Sudoeste 18 Sudoeste 0 -- -- 31
2021-02-16 17:00:00 20.9 7 Sudeste 13 Sudeste 0 -- -- 30
2021-02-16 16:00:00 20.6 4 Este 13 Nordeste 0 -- -- 34
2021-02-16 15:00:00 19.7 6 Este 13 Nordeste 0 -- -- 37
2021-02-16 14:00:00 17.7 4 Este 15 Este 0 -- -- 43
2021-02-16 13:00:00 15.5 7 Este 16 Este 0 -- -- 50
2021-02-16 12:00:00 12.8 9 Este 14 Este 0 -- -- 56
2021-02-16 11:00:00 11.5 7 Este 11 Nordeste 0 -- -- 61
2021-02-16 10:00:00 10.5 5 Sur 16 Sudoeste 0 -- -- 61
2021-02-16 09:00:00 6.8 8 Sudoeste 15 Sur 0 -- -- 74
2021-02-16 08:00:00 4.9 8 Sudoeste 17 Sudoeste 0 -- -- 78
2021-02-16 07:00:00 4.7 10 Sudoeste 16 Sudoeste 0 -- -- 80
2021-02-16 06:00:00 4.7 6 Sudoeste 15 Sudoeste 0 -- -- 80
2021-02-16 05:00:00 5.1 10 Sudoeste 16 Sudoeste 0 -- -- 78
2021-02-16 04:00:00 5.2 10 Sudoeste 17 Sudoeste 0 -- -- 78
2021-02-16 03:00:00 6 11 Sudoeste 16 Sudoeste 0 -- -- 75
2021-02-16 02:00:00 6 9 Sudoeste 14 Sudoeste 0 -- -- 78
2021-02-16 01:00:00 6.2 8 Sudoeste 13 Sudoeste 0 -- -- 80
2021-02-16 00:00:00 7 5 Sudoeste 10 Oeste 0 -- -- 78
2021-02-15 23:00:00 7.4 6 Oeste 15 Sur 0 -- -- 77
2021-02-15 22:00:00 8.1 5 Sur 12 Sudoeste 0 -- -- 76
2021-02-15 21:00:00 8.7 4 Sur 13 Sur 0 -- -- 76
2021-02-15 20:00:00 9 3 Sur 10 Sudeste 0 -- -- 75
2021-02-15 19:00:00 9.3 4 Sur 13 Sur 0 -- -- 78
2021-02-15 18:00:00 9.6 6 Sur 14 Sur 0 -- -- 77
2021-02-15 17:00:00 9.6 6 Sur 15 Sudeste 0.2 -- -- 81
2021-02-15 16:00:00 9.8 6 Sudeste 17 Sudeste 0 -- -- 81
2021-02-15 15:00:00 9.9 8 Sur 21 Sur 0 -- -- 80
2021-02-15 14:00:00 10 8 Sur 18 Sur 0 -- -- 80
2021-02-15 13:00:00 10.6 8 Sudoeste 24 Sur 0 -- -- 80
2021-02-15 12:00:00 10 5 Este 12 Sudeste 0 -- -- 89
2021-02-15 11:00:00 8.7 3 Nordeste 5 Este 0.2 -- -- 94
2021-02-15 10:00:00 8.3 0 Calma 6 Sudoeste 0 -- -- 92
2021-02-15 09:00:00 7.5 0 Calma 10 Sudoeste 0 -- -- 89
2021-02-15 08:00:00 6.7 7 Sudoeste 12 Sudoeste 0 -- -- 86
2021-02-15 07:00:00 6.3 4 Sudoeste 8 Sudoeste 0 -- -- 87
2021-02-15 06:00:00 6.6 0 Calma 8 Oeste 0 -- -- 87
2021-02-15 05:00:00 7 4 Sudoeste 6 Sudoeste 0 -- -- 87
2021-02-15 04:00:00 6.8 0 Calma 5 Oeste 0 -- -- 87
2021-02-15 03:00:00 8.3 4 Sudoeste 8 Sudoeste 0 -- -- 82
2021-02-15 02:00:00 8.3 0 Calma 5 Oeste 0 -- -- 82
2021-02-15 01:00:00 7.9 0 Calma 6 Oeste 0 -- -- 84
2021-02-15 00:00:00 8.5 3 Sudoeste 7 Sudoeste 0 -- -- 81
2021-02-14 23:00:00 8.5 4 Sudoeste 10 Sudoeste 0 -- -- 82
2021-02-14 22:00:00 9.6 4 Sudoeste 8 Sudoeste 0 -- -- 79
2021-02-14 21:00:00 10 2 Sudeste 5 Nordeste 0 -- -- 80
2021-02-14 20:00:00 10.5 3 Este 10 Nordeste 0 -- -- 77
2021-02-14 19:00:00 10.9 6 Nordeste 17 Nordeste 0 -- -- 74
2021-02-14 18:00:00 11.5 10 Nordeste 18 Nordeste 0 -- -- 68
2021-02-14 17:00:00 12.6 9 Nordeste 22 Nordeste 0 -- -- 61
2021-02-14 16:00:00 13.2 13 Nordeste 23 Este 0 -- -- 62
2021-02-14 15:00:00 13.9 11 Nordeste 22 Nordeste 0 -- -- 59
2021-02-14 14:00:00 14.3 10 Nordeste 27 Este 0 -- -- 60
2021-02-14 13:00:00 14 9 Nordeste 23 Nordeste 0 -- -- 61
2021-02-14 12:00:00 12.7 12 Este 19 Nordeste 0 -- -- 66
2021-02-14 11:00:00 11.4 8 Este 13 Este 0 -- -- 67
2021-02-14 10:00:00 12.3 0 Calma 10 Sudoeste 0 -- -- 57
2021-02-14 09:00:00 6.4 8 Sudoeste 15 Sudoeste 0 -- -- 74
2021-02-14 08:00:00 5.3 8 Sudoeste 13 Sudoeste 0 -- -- 77
2021-02-14 07:00:00 5.6 7 Sudoeste 12 Oeste 0 -- -- 76
2021-02-14 06:00:00 5.9 8 Sudoeste 13 Sudoeste 0 -- -- 72
2021-02-14 05:00:00 6.4 5 Oeste 14 Sudoeste 0 -- -- 70
2021-02-14 04:00:00 6.6 8 Sudoeste 13 Sudoeste 0 -- -- 68
2021-02-14 03:00:00 7.2 6 Sudoeste 12 Sudoeste 0 -- -- 66
2021-02-14 02:00:00 7.7 6 Sudoeste 10 Sudoeste 0 -- -- 62
2021-02-14 01:00:00 8.1 4 Oeste 9 Sudoeste 0 -- -- 62
2021-02-14 00:00:00 9.5 4 Sudoeste 19 Oeste 0 -- -- 56
2021-02-13 23:00:00 11 10 Sudoeste 18 Sudoeste 0 -- -- 49
2021-02-13 22:00:00 10.8 5 Oeste 15 Sudoeste 0 -- -- 46
2021-02-13 21:00:00 12.3 11 Sudoeste 17 Sudoeste 0 -- -- 41
2021-02-13 20:00:00 12.2 8 Sudoeste 14 Sudoeste 0 -- -- 48
2021-02-13 19:00:00 14 7 Sudoeste 12 Sudoeste 0 -- -- 46
2021-02-13 18:00:00 16.9 4 Oeste 15 Oeste 0 -- -- 34
2021-02-13 17:00:00 18.1 5 Oeste 19 Oeste 0 -- -- 31
2021-02-13 16:00:00 19.1 7 Oeste 21 Noroeste 0 -- -- 27
2021-02-13 15:00:00 18.3 7 Este 19 Este 0 -- -- 31
2021-02-13 14:00:00 18.3 5 Sur 30 Oeste 0 -- -- 32
2021-02-13 13:00:00 18.1 3 Nordeste 19 Este 0 -- -- 35
2021-02-13 08:00:00 10.1 7 Sur 18 Oeste 0 -- -- 61
2021-02-13 07:00:00 10.5 12 Oeste 24 Oeste 0 -- -- 60
2021-02-13 06:00:00 10.5 12 Sudoeste 22 Sudoeste 0 -- -- 60
2021-02-13 05:00:00 10.4 14 Sudoeste 25 Sudoeste 0 -- -- 61
2021-02-13 04:00:00 10.6 13 Oeste 27 Sudoeste 0 -- -- 60
2021-02-13 03:00:00 11.3 8 Sudoeste 18 Sudoeste 0 -- -- 56
2021-02-13 02:00:00 11.7 11 Sudoeste 21 Oeste 0 -- -- 55
2021-02-13 01:00:00 11.4 4 Norte 21 Sudoeste 0 -- -- 58
2021-02-13 00:00:00 12.2 10 Sudoeste 39 Oeste 0 -- -- 56
2021-02-12 23:00:00 12.5 8 Oeste 24 Oeste 0 -- -- 55
2021-02-12 22:00:00 12.8 8 Sudeste 42 Oeste 0 -- -- 54
2021-02-12 21:00:00 13.7 15 Oeste 49 Oeste 0 -- -- 51
2021-02-12 20:00:00 14 19 Noroeste 42 Noroeste 0 -- -- 49
2021-02-12 19:00:00 14.3 17 Oeste 39 Noroeste 0 -- -- 47
2021-02-12 18:00:00 15.1 19 Oeste 44 Oeste 0 -- -- 44
2021-02-12 17:00:00 16.5 23 Oeste 53 Oeste 0 -- -- 39
2021-02-12 16:00:00 17.2 16 Oeste 62 Oeste 0 -- -- 40
2021-02-12 15:00:00 18.2 20 Noroeste 57 Noroeste 0 -- -- 38
2021-02-12 14:00:00 18.2 22 Oeste 51 Oeste 0 -- -- 33
2021-02-12 13:00:00 18.8 19 Oeste 48 Oeste 0 -- -- 43
2021-02-12 12:00:00 16.9 20 Oeste 43 Oeste 0 -- -- 54
2021-02-12 11:00:00 16.4 9 Sudoeste 19 Sudoeste 0 -- -- 57
2021-02-12 10:00:00 15 6 Sudoeste 14 Sudoeste 0 -- -- 60
2021-02-12 09:00:00 14.3 7 Sudoeste 23 Oeste 0 -- -- 66
2021-02-12 08:00:00 13.8 10 Sudoeste 15 Oeste 0 -- -- 71
2021-02-12 07:00:00 13.5 4 Sudoeste 12 Sur 0 -- -- 73
2021-02-12 06:00:00 13.5 4 Sudoeste 10 Sudoeste 0 -- -- 73
2021-02-12 05:00:00 13 3 Sudoeste 9 Sudoeste 0 -- -- 74
2021-02-12 04:00:00 13 2 Sur 13 Sudoeste 0 -- -- 74
2021-02-12 03:00:00 13.8 5 Sudoeste 12 Sudoeste 0 -- -- 71
2021-02-12 02:00:00 14.2 5 Oeste 13 Sudoeste 0 -- -- 70
2021-02-12 01:00:00 14.1 7 Sudoeste 12 Sudoeste 0 -- -- 70
2021-02-12 00:00:00 14.3 7 Sudoeste 13 Sudoeste 0 -- -- 69
2021-02-11 23:00:00 14.8 6 Sudoeste 13 Sudoeste 0 -- -- 66
2021-02-11 22:00:00 15.4 7 Sudoeste 14 Sudoeste 0 -- -- 65
2021-02-11 21:00:00 15.2 6 Sudoeste 15 Sudoeste 0 -- -- 65
2021-02-11 20:00:00 15.4 6 Sur 13 Sudoeste 0 -- -- 65
2021-02-11 19:00:00 16.4 6 Oeste 12 Sudoeste 0 -- -- 60
2021-02-11 18:00:00 17.7 8 Oeste 21 Oeste 0 -- -- 56
2021-02-11 17:00:00 19.6 11 Oeste 24 Oeste 0 -- -- 47
2021-02-11 16:00:00 19.9 8 Oeste 23 Oeste 0 -- -- 47
2021-02-11 15:00:00 19.9 11 Oeste 33 Oeste 0 -- -- 48
2021-02-11 14:00:00 19.3 10 Sudoeste 25 Sudoeste 0 -- -- 49
2021-02-11 13:00:00 17.3 6 Sudeste 31 Oeste 0 -- -- 56
2021-02-11 12:00:00 15.9 13 Oeste 38 Oeste 0 -- -- 60
2021-02-11 11:00:00 16.4 15 Oeste 43 Oeste 0 -- -- 57
2021-02-11 10:00:00 14.6 15 Oeste 29 Oeste 0 -- -- 58
2021-02-11 09:00:00 12.3 7 Sur 11 Sur 0 -- -- 64
2021-02-11 08:00:00 11.1 7 Sudoeste 14 Sur 0 -- -- 67
2021-02-11 07:00:00 11.7 5 Sudeste 42 Oeste 0 -- -- 60
2021-02-11 06:00:00 12.7 13 Oeste 41 Oeste 0 -- -- 47
2021-02-11 05:00:00 12.8 13 Oeste 33 Oeste 0 -- -- 43
2021-02-11 04:00:00 11.4 5 Sur 15 Sudoeste 0 -- -- 57
2021-02-11 03:00:00 11.6 4 Sur 15 Sudoeste 0 -- -- 54
2021-02-11 02:00:00 11 3 Sudoeste 8 Sudeste 0 -- -- 56
2021-02-11 01:00:00 11 2 Sur 12 Sudoeste 0 -- -- 56
2021-02-11 00:00:00 11.6 3 Sudeste 23 Sudoeste 0 -- -- 54
2021-02-10 23:00:00 12.1 15 Sudoeste 27 Sudoeste 0 -- -- 53
2021-02-10 22:00:00 12.4 14 Oeste 28 Oeste 0 -- -- 52
2021-02-10 21:00:00 12.2 7 Sudoeste 22 Sudoeste 0 -- -- 51
2021-02-10 20:00:00 12.6 4 Sudoeste 17 Sudoeste 0 -- -- 48
2021-02-10 19:00:00 13.5 3 Noroeste 26 Oeste 0 -- -- 42
2021-02-10 18:00:00 14.9 5 Noroeste 30 Oeste 0 -- -- 37
2021-02-10 17:00:00 16.7 13 Noroeste 32 Noroeste 0 -- -- 33
2021-02-10 16:00:00 16.8 17 Noroeste 44 Oeste 0 -- -- 33
2021-02-10 15:00:00 16.3 18 Oeste 46 Oeste 0 -- -- 41
2021-02-10 14:00:00 16.3 18 Noroeste 47 Sudoeste 0 -- -- 37
2021-02-10 13:00:00 15.5 14 Noroeste 49 Sudoeste 0 -- -- 40
2021-02-10 12:00:00 14.9 21 Oeste 55 Oeste 0 -- -- 45
2021-02-10 11:00:00 14.1 25 Oeste 53 Oeste 0 -- -- 48
2021-02-10 10:00:00 13.3 14 Sudoeste 32 Sudoeste 0 -- -- 51
2021-02-10 09:00:00 12 10 Sudoeste 40 Sudoeste 0 -- -- 54
2021-02-10 08:00:00 11 18 Sudoeste 39 Sudoeste 0 -- -- 53
2021-02-10 07:00:00 10.7 12 Sudoeste 36 Sur 0 -- -- 53
2021-02-10 06:00:00 10.9 13 Sudoeste 30 Sudoeste 0 -- -- 56
2021-02-10 05:00:00 11.7 14 Sudoeste 28 Oeste 0 -- -- 61
2021-02-10 04:00:00 11.8 5 Sudoeste 18 Sudoeste 0 -- -- 65
2021-02-10 03:00:00 11.9 7 Sudoeste 26 Oeste 0 -- -- 64
2021-02-10 02:00:00 12.5 14 Sudoeste 32 Sudoeste 0 -- -- 62
2021-02-10 01:00:00 12.9 8 Oeste 22 Oeste 0 -- -- 63
2021-02-10 00:00:00 13.5 5 Sudoeste 25 Sudoeste 0 -- -- 59
2021-02-09 23:00:00 13.8 8 Sudoeste 24 Sudoeste 0 -- -- 58
2021-02-09 22:00:00 14.1 12 Sudoeste 22 Oeste 0 -- -- 56
2021-02-09 21:00:00 13.7 5 Sudoeste 25 Sudoeste 0 -- -- 53
2021-02-09 20:00:00 14.1 7 Sudoeste 22 Sudoeste 0 -- -- 51
2021-02-09 19:00:00 13 9 Sudoeste 27 Sudoeste 0 -- -- 51
2021-02-09 18:00:00 13 14 Sudoeste 27 Sudoeste 0 -- -- 50
2021-02-09 17:00:00 13.3 12 Sudoeste 31 Oeste 0 -- -- 48
2021-02-09 16:00:00 12.7 9 Sudoeste 19 Sudoeste 0 -- -- 50
2021-02-09 15:00:00 12.7 4 Sudoeste 21 Oeste 0 -- -- 51
2021-02-09 14:00:00 12.9 4 Sudoeste 23 Sudoeste 0 -- -- 47
2021-02-09 13:00:00 13.6 9 Sudoeste 18 Sudoeste 0 -- -- 43
2021-02-09 12:00:00 12.4 6 Sudoeste 17 Sudoeste 0 -- -- 47
2021-02-09 11:00:00 11.5 7 Sudoeste 17 Sudoeste 0 -- -- 52
2021-02-09 10:00:00 10.6 6 Oeste 14 Oeste 0 -- -- 56
2021-02-09 09:00:00 9.9 8 Oeste 21 Oeste 0 -- -- 58
2021-02-09 08:00:00 8.6 0 Calma 14 Sudoeste 0 -- -- 66
2021-02-09 07:00:00 8.8 5 Sudoeste 17 Sudoeste 0 -- -- 67
2021-02-09 06:00:00 9.3 9 Sudoeste 26 Sudoeste 0 -- -- 67
2021-02-09 05:00:00 9.4 8 Sudoeste 35 Noroeste 0 -- -- 63
2021-02-09 04:00:00 9.4 17 Oeste 37 Sudoeste 0 -- -- 63
2021-02-09 03:00:00 9.5 17 Sudoeste 45 Sudoeste 0 -- -- 62
2021-02-09 02:00:00 10.3 25 Oeste 64 Oeste 0 -- -- 57
2021-02-09 01:00:00 10.3 31 Oeste 57 Oeste 0 -- -- 57
2021-02-09 00:00:00 10.3 27 Oeste 59 Oeste 0 -- -- 57
2021-02-08 23:00:00 10.7 26 Oeste 47 Oeste 0 -- -- 54
2021-02-08 22:00:00 10.7 19 Oeste 53 Oeste 0 -- -- 57
2021-02-08 21:00:00 10.6 23 Oeste 55 Oeste 0 -- -- 59
2021-02-08 20:00:00 10.9 21 Oeste 68 Oeste 0 -- -- 56
2021-02-08 19:00:00 11.7 19 Oeste 49 Sudoeste 0 -- -- 53
2021-02-08 18:00:00 12.3 13 Oeste 50 Oeste 0 -- -- 49
2021-02-08 17:00:00 13.1 27 Oeste 57 Noroeste 0 -- -- 46
2021-02-08 16:00:00 13.6 21 Oeste 55 Noroeste 0 -- -- 45
2021-02-08 15:00:00 14.2 17 Oeste 54 Oeste 0 -- -- 43
2021-02-08 14:00:00 13.6 19 Oeste 45 Oeste 0 -- -- 47
2021-02-08 13:00:00 12.6 15 Oeste 40 Sudoeste 0 -- -- 53
2021-02-08 12:00:00 13.1 15 Oeste 48 Oeste 0 -- -- 51
2021-02-08 11:00:00 13 13 Sudoeste 27 Sudoeste 0 -- -- 64
2021-02-08 10:00:00 10.3 15 Oeste 28 Oeste 0.4 -- -- 72
2021-02-08 09:00:00 10.1 4 Sudeste 18 Sur 0 -- -- 63
2021-02-08 08:00:00 9.8 5 Oeste 19 Oeste 0 -- -- 65
2021-02-08 07:00:00 9.4 4 Sudoeste 23 Sudoeste 0 -- -- 66
2021-02-08 06:00:00 9.2 15 Oeste 45 Oeste 0 -- -- 65
2021-02-08 05:00:00 9.3 26 Oeste 45 Sudoeste 0 -- -- 64
2021-02-08 04:00:00 8.7 16 Oeste 45 Oeste 0 -- -- 66
2021-02-08 03:00:00 9 5 Oeste 41 Oeste 0 -- -- 64
2021-02-08 02:00:00 9 24 Oeste 49 Oeste 0 -- -- 63
2021-02-08 01:00:00 8.9 26 Oeste 49 Oeste 0 -- -- 60
2021-02-08 00:00:00 9.6 21 Oeste 50 Noroeste 0 -- -- 59
2021-02-07 23:00:00 10 18 Oeste 50 Oeste 0 -- -- 58
2021-02-07 22:00:00 10.2 19 Oeste 63 Oeste 0 -- -- 55
2021-02-07 21:00:00 10.2 23 Oeste 55 Oeste 0 -- -- 54
2021-02-07 20:00:00 10.7 20 Oeste 48 Oeste 0 -- -- 56
2021-02-07 19:00:00 10.7 6 Sudoeste 24 Oeste 0 -- -- 57
2021-02-07 18:00:00 11.4 13 Oeste 37 Oeste 0 -- -- 54
2021-02-07 17:00:00 11.8 14 Oeste 46 Sudoeste 0 -- -- 53
2021-02-07 16:00:00 13.3 7 Oeste 41 Oeste 0 -- -- 48
2021-02-07 15:00:00 13.6 12 Oeste 33 Oeste 0 -- -- 46
2021-02-07 14:00:00 14.2 14 Oeste 40 Oeste 0 -- -- 44
2021-02-07 13:00:00 13 8 Noroeste 32 Noroeste 0 -- -- 52
2021-02-07 12:00:00 13.5 18 Noroeste 38 Oeste 0 -- -- 50
2021-02-07 11:00:00 11.7 12 Oeste 32 Sudoeste 0 -- -- 63
2021-02-07 10:00:00 10.7 13 Oeste 37 Sur 0 -- -- 67
2021-02-07 09:00:00 9.4 2 Noroeste 13 Sudoeste 0 -- -- 74
2021-02-07 08:00:00 9.1 5 Sudoeste 10 Sudoeste 0 -- -- 76
2021-02-07 07:00:00 9.4 6 Sudoeste 12 Oeste 0 -- -- 74
2021-02-07 06:00:00 8.8 4 Este 9 Sudeste 0 -- -- 76
2021-02-07 05:00:00 9.1 6 Oeste 18 Oeste 0 -- -- 73
2021-02-07 04:00:00 8.1 6 Sudoeste 10 Sudoeste 0 -- -- 75
2021-02-07 03:00:00 8.8 3 Sudoeste 12 Sur 0 -- -- 71
2021-02-07 02:00:00 9.7 8 Sudoeste 33 Oeste 0 -- -- 67
2021-02-07 01:00:00 10 10 Oeste 22 Oeste 0 -- -- 67
2021-02-07 00:00:00 10 5 Sudoeste 25 Oeste 0 -- -- 66
2021-02-06 23:00:00 10.2 8 Sudoeste 16 Sudoeste 0 -- -- 63
2021-02-06 22:00:00 10.8 10 Sudoeste 18 Sudoeste 0 -- -- 60
2021-02-06 21:00:00 10.9 9 Oeste 22 Oeste 0 -- -- 60
2021-02-06 20:00:00 11.7 9 Oeste 25 Oeste 0 -- -- 58
2021-02-06 19:00:00 12.5 0 Calma 11 Nordeste 0 -- -- 68
2021-02-06 18:00:00 14.2 9 Nordeste 17 Noroeste 0 -- -- 61
2021-02-06 17:00:00 15.7 5 Oeste 19 Sur 0 -- -- 42
2021-02-06 16:00:00 16.4 0 Calma 17 Oeste 0 -- -- 43
2021-02-06 15:00:00 16 12 Oeste 21 Oeste 0 -- -- 45
2021-02-06 14:00:00 16.1 8 Sur 21 Sudeste 0 -- -- 50
2021-02-06 13:00:00 15.1 7 Sur 19 Sur 0 -- -- 52
2021-02-06 12:00:00 15.9 6 Sur 21 Sur 0 -- -- 53
2021-02-06 11:00:00 15.4 7 Sudoeste 13 Sudoeste 0 -- -- 54
2021-02-06 10:00:00 13.3 5 Sudoeste 13 Sudoeste 0 -- -- 65
2021-02-06 09:00:00 10.9 4 Oeste 13 Sudoeste 0 -- -- 74
2021-02-06 08:00:00 10.6 5 Sudeste 15 Noroeste 0 -- -- 75
2021-02-06 07:00:00 9.9 3 Oeste 10 Oeste 0 -- -- 78
2021-02-06 06:00:00 10.5 6 Sudoeste 15 Sudoeste 0 -- -- 76
2021-02-06 05:00:00 8.5 6 Sudoeste 12 Sudoeste 0 -- -- 90
2021-02-06 04:00:00 9.4 3 Sur 9 Sudoeste 0 -- -- 88
2021-02-06 03:00:00 9.6 2 Sudeste 9 Sur 0 -- -- 91
2021-02-06 02:00:00 9.6 3 Sudoeste 9 Sudoeste 0 -- -- 94
2021-02-06 01:00:00 9.3 3 Este 11 Este 0 -- -- 94
2021-02-06 00:00:00 9.5 4 Este 9 Este 0 -- -- 93
2021-02-05 23:00:00 9.4 0 Calma 12 Este 0 -- -- 95
2021-02-05 22:00:00 9.3 6 Nordeste 14 Este 0 -- -- 95
2021-02-05 21:00:00 9.4 7 Nordeste 12 Nordeste 0 -- -- 95
2021-02-05 20:00:00 9.5 5 Nordeste 14 Nordeste 0 -- -- 94
2021-02-05 19:00:00 9.9 5 Nordeste 11 Nordeste 0 -- -- 92
2021-02-05 18:00:00 10.3 9 Nordeste 14 Nordeste 0 -- -- 90
2021-02-05 17:00:00 10.6 9 Nordeste 17 Nordeste 0 -- -- 88
2021-02-05 16:00:00 11.1 9 Nordeste 17 Nordeste 0 -- -- 87
2021-02-05 15:00:00 11.1 9 Este 18 Nordeste 0 -- -- 87
2021-02-05 14:00:00 11.3 11 Este 18 Nordeste 0 -- -- 86
2021-02-05 13:00:00 11.9 9 Este 18 Nordeste 0 -- -- 85
2021-02-05 12:00:00 11.3 8 Este 14 Este 0 -- -- 85
2021-02-05 11:00:00 9.8 5 Este 9 Sudeste 0 -- -- 97
2021-02-05 10:00:00 8.4 2 Este 5 Este 0 -- -- 98
2021-02-05 09:00:00 7.7 4 Este 7 Este 0 -- -- 99
2021-02-05 08:00:00 7.6 2 Noroeste 6 Noroeste 0 -- -- 98
2021-02-05 07:00:00 7.7 0 Calma 7 Norte 0 -- -- 98
2021-02-05 06:00:00 7.9 0 Calma 5 Nordeste 0 -- -- 98
2021-02-05 05:00:00 8.1 3 Sudeste 8 Este 0 -- -- 97
2021-02-05 04:00:00 8.2 4 Este 9 Este 0 -- -- 97
2021-02-05 03:00:00 8.3 2 Este 6 Este 0 -- -- 96
2021-02-05 02:00:00 8.3 3 Este 5 Este 0 -- -- 94
2021-02-05 01:00:00 8.4 0 Calma 3 Este 0 -- -- 93
2021-02-05 00:00:00 9.1 3 Nordeste 5 Nordeste 0 -- -- 90
2021-02-04 23:00:00 9.8 0 Calma 4 Nordeste 0 -- -- 87
2021-02-04 22:00:00 10.4 0 Calma 3 Este 0 -- -- 85
2021-02-04 21:00:00 11.2 2 Este 8 Nordeste 0 -- -- 81
2021-02-04 20:00:00 12.5 4 Este 13 Este 0 -- -- 76
2021-02-04 19:00:00 16.7 3 Noroeste 12 Sudoeste 0 -- -- 40
2021-02-04 18:00:00 17.9 3 Este 14 Sudoeste 0 -- -- 36
2021-02-04 17:00:00 18.9 6 Este 11 Nordeste 0 -- -- 48
2021-02-04 16:00:00 19.6 5 Este 17 Sudeste 0 -- -- 45
2021-02-04 15:00:00 22.1 8 Sudeste 21 Sudeste 0 -- -- 31
2021-02-04 14:00:00 20.1 4 Nordeste 15 Este 0 -- -- 41
2021-02-04 13:00:00 17.2 8 Este 17 Este 0 -- -- 51
2021-02-04 12:00:00 15.7 8 Este 14 Este 0 -- -- 54
2021-02-04 11:00:00 13.3 5 Este 9 Nordeste 0 -- -- 60
2021-02-04 10:00:00 12.2 4 Sudoeste 14 Sudoeste 0 -- -- 61
2021-02-04 09:00:00 9.4 6 Sudoeste 17 Sudoeste 0 -- -- 68
2021-02-04 08:00:00 8 11 Sudoeste 19 Sudoeste 0 -- -- 71
2021-02-04 07:00:00 8.5 8 Sudoeste 15 Sudoeste 0 -- -- 67
2021-02-04 06:00:00 8.9 7 Sudoeste 16 Oeste 0 -- -- 64
2021-02-04 05:00:00 9.5 9 Sudoeste 15 Sudoeste 0 -- -- 58
2021-02-04 04:00:00 9.9 8 Sudoeste 17 Sudoeste 0 -- -- 55
2021-02-04 03:00:00 10.3 9 Oeste 14 Sudoeste 0 -- -- 53
2021-02-04 02:00:00 10.4 9 Sudoeste 13 Sudoeste 0 -- -- 53
2021-02-04 01:00:00 11.1 7 Sudoeste 13 Oeste 0 -- -- 51
2021-02-04 00:00:00 11.8 4 Sudoeste 13 Oeste 0 -- -- 49
2021-02-03 23:00:00 12.3 9 Sudoeste 17 Sudoeste 0 -- -- 48
2021-02-03 22:00:00 13.3 8 Sudoeste 13 Sudoeste 0 -- -- 45
2021-02-03 21:00:00 13.9 6 Oeste 13 Sudoeste 0 -- -- 45
2021-02-03 20:00:00 15.4 9 Sudoeste 15 Sudoeste 0 -- -- 44
2021-02-03 19:00:00 16.5 5 Sudoeste 11 Sudoeste 0 -- -- 43
2021-02-03 18:00:00 18.5 6 Oeste 12 Oeste 0 -- -- 36
2021-02-03 17:00:00 20.2 6 Oeste 18 Sudoeste 0 -- -- 31
2021-02-03 16:00:00 20.7 12 Oeste 25 Sudoeste 0 -- -- 27
2021-02-03 15:00:00 21.7 14 Sudoeste 27 Sudoeste 0 -- -- 21
2021-02-03 14:00:00 21.3 5 Nordeste 10 Este 0 -- -- 33
2021-02-03 13:00:00 18.8 6 Nordeste 12 Este 0 -- -- 38
2021-02-03 12:00:00 17.9 2 Nordeste 6 Este 0 -- -- 41
2021-02-03 11:00:00 13.6 3 Este 7 Nordeste 0 -- -- 54
2021-02-03 10:00:00 12.5 3 Este 12 Sudoeste 0 -- -- 53
2021-02-03 09:00:00 12.7 6 Sudoeste 18 Sudoeste 0 -- -- 49
2021-02-03 08:00:00 8.1 5 Oeste 11 Sudoeste 0 -- -- 70
2021-02-03 07:00:00 9.8 5 Sudoeste 11 Sudoeste 0 -- -- 61
2021-02-03 06:00:00 11.3 8 Sudoeste 15 Sudoeste 0 -- -- 58
2021-02-03 05:00:00 8.2 0 Calma 4 Nordeste 0 -- -- 75
2021-02-03 04:00:00 9.8 3 Este 15 Sudoeste 0 -- -- 68
2021-02-03 03:00:00 9.6 0 Calma 9 Sudoeste 0 -- -- 69
2021-02-03 02:00:00 11.3 4 Oeste 10 Sudoeste 0 -- -- 64
2021-02-03 01:00:00 12.5 4 Oeste 17 Sudoeste 0 -- -- 60
2021-02-03 00:00:00 13.6 7 Sudoeste 16 Sur 0 -- -- 59
2021-02-02 23:00:00 13.6 9 Sudoeste 16 Sudoeste 0 -- -- 62
2021-02-02 22:00:00 14 8 Sudoeste 16 Sudoeste 0 -- -- 60
2021-02-02 21:00:00 13.5 5 Sudoeste 13 Sur 0 -- -- 61
2021-02-02 20:00:00 14.6 6 Sur 12 Sudoeste 0 -- -- 57
2021-02-02 19:00:00 16 5 Sudoeste 24 Sudoeste 0 -- -- 52
2021-02-02 18:00:00 17.7 9 Sudoeste 31 Sudoeste 0 -- -- 46
2021-02-02 17:00:00 19.3 12 Sudoeste 24 Sudoeste 0 -- -- 42
2021-02-02 16:00:00 19.3 11 Sudoeste 26 Sur 0 -- -- 44
2021-02-02 15:00:00 19 12 Sudoeste 31 Sur 0 -- -- 46
2021-02-02 14:00:00 18 15 Sudoeste 35 Sudoeste 0 -- -- 49
2021-02-02 13:00:00 17 12 Sudoeste 29 Sudoeste 0 -- -- 53
2021-02-02 12:00:00 15.9 12 Sudoeste 27 Oeste 0 -- -- 56
2021-02-02 11:00:00 15.1 12 Sudoeste 25 Sudoeste 0 -- -- 57
2021-02-02 10:00:00 12.9 5 Sudoeste 16 Oeste 0 -- -- 65
2021-02-02 09:00:00 12.3 16 Oeste 32 Sudoeste 0 -- -- 65
2021-02-02 08:00:00 11.3 17 Oeste 34 Oeste 0 -- -- 69
2021-02-02 07:00:00 12.4 13 Oeste 35 Oeste 0 -- -- 65
2021-02-02 06:00:00 11.4 11 Sudoeste 33 Oeste 0 -- -- 69
2021-02-02 05:00:00 11.4 10 Oeste 21 Oeste 0 -- -- 69
2021-02-02 04:00:00 11.5 8 Sudoeste 22 Sudoeste 0 -- -- 69
2021-02-02 03:00:00 11.1 6 Sudoeste 26 Sur 0 -- -- 70
2021-02-02 02:00:00 11.1 7 Sur 28 Sudoeste 0 -- -- 69
2021-02-02 01:00:00 12 10 Oeste 31 Oeste 0 -- -- 66
2021-02-02 00:00:00 12 10 Sudoeste 22 Sur 0 -- -- 65
2021-02-01 23:00:00 12.5 8 Sur 22 Sudeste 0 -- -- 63
2021-02-01 22:00:00 12.9 8 Este 36 Oeste 0 -- -- 62
2021-02-01 21:00:00 13.8 14 Sudoeste 54 Oeste 0 -- -- 61
2021-02-01 20:00:00 14.8 27 Oeste 48 Oeste 0 -- -- 55
2021-02-01 19:00:00 15.5 16 Oeste 40 Oeste 0 -- -- 52
2021-02-01 18:00:00 16.4 10 Oeste 40 Noroeste 0 -- -- 51
2021-02-01 17:00:00 18.5 17 Oeste 48 Noroeste 0 -- -- 43
2021-02-01 16:00:00 19 27 Oeste 61 Oeste 0 -- -- 41
2021-02-01 15:00:00 19.8 25 Oeste 49 Noroeste 0 -- -- 38
2021-02-01 14:00:00 19.3 24 Oeste 51 Noroeste 0 -- -- 38
2021-02-01 13:00:00 18.6 22 Oeste 59 Oeste 0 -- -- 40
2021-02-01 12:00:00 17.3 29 Oeste 71 Oeste 0 -- -- 42
2021-02-01 11:00:00 16.4 34 Oeste 68 Oeste 0 -- -- 43
2021-02-01 10:00:00 14.6 30 Oeste 69 Oeste 0 -- -- 48
2021-02-01 09:00:00 13.8 23 Oeste 49 Oeste 0 -- -- 53
2021-02-01 08:00:00 13.4 19 Oeste 55 Noroeste 0 -- -- 55
2021-02-01 07:00:00 13.2 4 Sudeste 35 Sur 0 -- -- 57
2021-02-01 06:00:00 13.2 14 Sudoeste 49 Sudoeste 0 -- -- 60
2021-02-01 05:00:00 13.6 21 Sudoeste 49 Sur 0 -- -- 62
2021-02-01 04:00:00 13.7 8 Sudoeste 51 Oeste 0 -- -- 63
2021-02-01 03:00:00 14.3 15 Sudoeste 53 Oeste 0 -- -- 61
2021-02-01 02:00:00 14.7 25 Oeste 55 Oeste 0 -- -- 64
2021-02-01 01:00:00 14.9 16 Noroeste 50 Oeste 0 -- -- 65
2021-02-01 00:00:00 14.7 24 Oeste 70 Oeste 0 -- -- 64
2021-01-31 23:00:00 14.4 34 Oeste 73 Oeste 0 -- -- 66
2021-01-31 22:00:00 14.2 35 Oeste 69 Oeste 0 -- -- 67
2021-01-31 21:00:00 14.1 21 Oeste 62 Oeste 0 -- -- 65
2021-01-31 20:00:00 13.8 35 Oeste 64 Oeste 0 -- -- 65
2021-01-31 19:00:00 13.9 33 Oeste 72 Oeste 0 -- -- 64
2021-01-31 18:00:00 13.9 26 Oeste 78 Sudoeste 0 -- -- 63
2021-01-31 17:00:00 13.7 32 Oeste 64 Oeste 0 -- -- 64
2021-01-31 16:00:00 14.3 35 Oeste 58 Oeste 0 -- -- 61
2021-01-31 15:00:00 15.3 20 Oeste 63 Oeste 0 -- -- 56
2021-01-31 14:00:00 15.5 24 Oeste 63 Oeste 0 -- -- 53
2021-01-31 13:00:00 15 23 Oeste 63 Oeste 0 -- -- 50
2021-01-31 12:00:00 12.5 22 Oeste 57 Oeste 0 -- -- 55
2021-01-31 11:00:00 12.1 27 Oeste 66 Noroeste 0 -- -- 54
2021-01-31 10:00:00 10.3 26 Oeste 69 Oeste 0 -- -- 57
2021-01-31 09:00:00 9.4 19 Oeste 44 Oeste 0 -- -- 61
2021-01-31 08:00:00 9.3 22 Oeste 50 Oeste 0 -- -- 62
2021-01-31 07:00:00 9.5 21 Oeste 53 Sudoeste 0 -- -- 62
2021-01-31 06:00:00 9.8 17 Oeste 58 Oeste 0 -- -- 60
2021-01-31 05:00:00 10 20 Oeste 59 Oeste 0 -- -- 59
2021-01-31 04:00:00 10.2 21 Noroeste 51 Noroeste 0 -- -- 57
2021-01-31 03:00:00 10.5 22 Noroeste 49 Noroeste 0 -- -- 54
2021-01-31 02:00:00 10.7 21 Oeste 55 Oeste 0 -- -- 56
2021-01-31 01:00:00 10.9 27 Noroeste 62 Noroeste 0 -- -- 55
2021-01-31 00:00:00 11.3 20 Oeste 61 Oeste 0 -- -- 55